Diego Rispoli | Il piacere del sapere

METAR LIMF - Aeroporto di Torino Caselle

Torino / Caselle, Italy (LIMF) 45-13N 007-39E 287M

Apr 08, 2020 - 07:20 PM EDT / 2020.04.08 2320 UTC

Wind: from the W (260 degrees) at 2 MPH (2 KT):0

Visibility: greater than 7 mile(s):0

Temperature: 53 F (12 C)

Dew Point: 33 F (1 C)

Relative Humidity: 46%

Pressure (altimeter): 30.24 in. Hg (1024 hPa)

ob: LIMF 082320Z AUTO 26002KT 9999 NCD 12/01 Q1024

cycle: 23

 Dati METAR in tempo reale | Fonte: NOAA

2006-2020 Powered by Diego Rispoli | Il piacere del sapere